Razgrad, Bulgaria
Current Conditions -  °F | °C
As of 11:41 AM on Thursday 23 Oct 2014 (Local Time) from LBGO Reporting Station
Light Rain Light Rain  
Wind Chill: 46°   Ceiling: 2300
Heat Index: 46°   Visibility: 5mi
Dew Point: 46°   Wind: 2mph
Humidity: 100%   Direction: NA
Pressure: 29.62"   Gusts: NA
Location:  43.53°N, 26.53°E
Report Text: LBGO 230841Z VRB01MPS 8000 -RA OVC023 08/08 Q1003 NOSIG
Loading
Personal Weather Stations






























Interactive Weather Map
Tropical Storm Tracking
New forecast layout! Learn more

10-Day Weather Forecast

Advertisements
Track Severe Weather on mobile